createdAt,value
2023-12-12T00:00:58.895Z,605.00
2023-12-12T00:01:58.852Z,601.00
2023-12-12T00:02:58.805Z,602.00
2023-12-12T00:03:58.754Z,602.00
2023-12-12T00:04:58.615Z,600.00
2023-12-12T00:05:58.675Z,603.00
2023-12-12T00:06:58.605Z,603.00
2023-12-12T00:07:58.434Z,603.00
2023-12-12T00:08:58.368Z,602.00
2023-12-12T00:09:58.327Z,604.00
2023-12-12T00:10:58.276Z,604.00
2023-12-12T00:11:58.196Z,604.00
2023-12-12T00:12:58.130Z,603.00
2023-12-12T00:13:58.067Z,604.00
2023-12-12T00:14:58.009Z,603.00
2023-12-12T00:15:58.014Z,605.00
2023-12-12T00:16:57.885Z,603.00
2023-12-12T00:17:57.863Z,603.00
2023-12-12T00:18:57.863Z,601.00
2023-12-12T00:19:57.705Z,602.00
2023-12-12T00:20:57.633Z,600.00
2023-12-12T00:21:57.589Z,605.00
2023-12-12T00:22:57.526Z,603.00
2023-12-12T00:23:57.440Z,600.00
2023-12-12T00:24:57.390Z,604.00
2023-12-12T00:25:57.318Z,605.00
2023-12-12T00:26:57.286Z,604.00
2023-12-12T00:27:57.302Z,601.00
2023-12-12T00:28:57.156Z,603.00
2023-12-12T00:29:57.064Z,604.00
2023-12-12T00:30:57.055Z,602.00
2023-12-12T00:31:56.936Z,603.00
2023-12-12T00:32:56.904Z,605.00
2023-12-12T00:33:56.923Z,604.00
2023-12-12T00:34:56.817Z,602.00
2023-12-12T00:35:56.727Z,604.00
2023-12-12T00:36:56.755Z,602.00
2023-12-12T00:37:56.631Z,601.00
2023-12-12T00:38:56.547Z,602.00
2023-12-12T00:39:56.505Z,603.00
2023-12-12T00:40:56.419Z,601.00
2023-12-12T00:41:56.354Z,604.00
2023-12-12T00:42:56.370Z,602.00
2023-12-12T00:43:56.238Z,601.00
2023-12-12T00:44:56.185Z,602.00
2023-12-12T00:45:56.133Z,603.00
2023-12-12T00:46:56.093Z,601.00
2023-12-12T00:47:56.086Z,603.00
2023-12-12T00:48:56.118Z,601.00
2023-12-12T00:49:55.972Z,604.00
2023-12-12T00:50:55.864Z,602.00
2023-12-12T00:52:05.834Z,602.00
2023-12-12T00:52:55.753Z,602.00
2023-12-12T00:53:55.699Z,603.00
2023-12-12T00:54:55.647Z,603.00
2023-12-12T00:55:55.566Z,602.00
2023-12-12T00:56:55.576Z,602.00
2023-12-12T00:57:55.490Z,601.00
2023-12-12T00:58:55.399Z,603.00
2023-12-12T00:59:55.357Z,603.00
2023-12-12T01:00:55.390Z,604.00
2023-12-12T01:01:55.266Z,603.00
2023-12-12T01:02:55.178Z,602.00
2023-12-12T01:03:55.191Z,601.00
2023-12-12T01:04:55.153Z,601.00
2023-12-12T01:05:55.085Z,601.00
2023-12-12T01:06:54.937Z,603.00
2023-12-12T01:07:54.909Z,604.00
2023-12-12T01:08:54.829Z,602.00
2023-12-12T01:09:54.782Z,603.00
2023-12-12T01:10:54.712Z,603.00
2023-12-12T01:11:54.675Z,604.00
2023-12-12T01:12:54.655Z,599.00
2023-12-12T01:13:54.536Z,605.00
2023-12-12T01:14:54.458Z,602.00
2023-12-12T01:15:54.426Z,603.00
2023-12-12T01:16:54.354Z,604.00
2023-12-12T01:17:54.435Z,601.00
2023-12-12T01:18:54.307Z,602.00
2023-12-12T01:19:54.242Z,604.00
2023-12-12T01:20:54.122Z,602.00
2023-12-12T01:21:54.128Z,605.00
2023-12-12T01:22:54.032Z,605.00
2023-12-12T01:23:53.994Z,603.00
2023-12-12T01:24:53.955Z,605.00
2023-12-12T01:25:53.857Z,602.00
2023-12-12T01:26:53.797Z,604.00
2023-12-12T01:27:53.785Z,604.00
2023-12-12T01:28:53.667Z,603.00
2023-12-12T01:29:53.609Z,602.00
2023-12-12T01:30:53.590Z,602.00
2023-12-12T01:31:53.521Z,602.00
2023-12-12T01:32:53.492Z,601.00
2023-12-12T01:33:53.426Z,602.00
2023-12-12T01:34:53.405Z,601.00
2023-12-12T01:35:53.287Z,603.00
2023-12-12T01:36:53.263Z,602.00
2023-12-12T01:37:53.178Z,601.00
2023-12-12T01:38:53.083Z,606.00
2023-12-12T01:39:53.064Z,602.00
2023-12-12T01:40:52.984Z,602.00
2023-12-12T01:41:52.970Z,603.00
2023-12-12T01:42:52.909Z,604.00
2023-12-12T01:43:52.788Z,603.00
2023-12-12T01:44:52.714Z,603.00
2023-12-12T01:45:52.673Z,604.00
2023-12-12T01:46:52.580Z,605.00
2023-12-12T01:47:52.606Z,604.00
2023-12-12T01:48:52.585Z,604.00
2023-12-12T01:49:52.448Z,605.00
2023-12-12T01:50:52.332Z,605.00
2023-12-12T01:51:52.376Z,605.00
2023-12-12T01:52:52.217Z,603.00
2023-12-12T01:53:52.173Z,603.00
2023-12-12T01:54:52.167Z,603.00
2023-12-12T01:55:52.019Z,605.00
2023-12-12T01:56:51.986Z,603.00
2023-12-12T01:57:52.031Z,604.00
2023-12-12T01:58:51.878Z,603.00
2023-12-12T01:59:51.803Z,604.00
2023-12-12T02:00:51.791Z,601.00
2023-12-12T02:01:51.762Z,601.00
2023-12-12T02:02:51.609Z,602.00
2023-12-12T02:03:51.636Z,603.00
2023-12-12T02:04:51.639Z,603.00
2023-12-12T02:05:51.587Z,602.00
2023-12-12T02:06:51.438Z,601.00
2023-12-12T02:07:51.326Z,602.00
2023-12-12T02:08:51.257Z,603.00
2023-12-12T02:09:51.205Z,606.00
2023-12-12T02:10:51.144Z,604.00
2023-12-12T02:11:51.054Z,606.00
2023-12-12T02:12:51.019Z,605.00
2023-12-12T02:13:50.975Z,603.00
2023-12-12T02:14:50.921Z,601.00
2023-12-12T02:15:50.868Z,602.00
2023-12-12T02:16:50.777Z,603.00
2023-12-12T02:17:50.800Z,603.00
2023-12-12T02:18:50.758Z,601.00
2023-12-12T02:19:50.678Z,604.00
2023-12-12T02:20:50.560Z,602.00
2023-12-12T02:21:50.548Z,602.00
2023-12-12T02:22:50.431Z,604.00
2023-12-12T02:23:50.386Z,604.00
2023-12-12T02:24:50.354Z,603.00
2023-12-12T02:25:50.302Z,604.00
2023-12-12T02:26:50.223Z,602.00
2023-12-12T02:27:50.107Z,603.00
2023-12-12T02:28:50.044Z,602.00
2023-12-12T02:29:49.972Z,604.00
2023-12-12T02:30:49.988Z,602.00
2023-12-12T02:31:49.862Z,604.00
2023-12-12T02:32:49.930Z,604.00
2023-12-12T02:33:49.794Z,602.00
2023-12-12T02:34:49.682Z,601.00
2023-12-12T02:35:49.629Z,604.00
2023-12-12T02:36:49.630Z,600.00
2023-12-12T02:37:49.488Z,602.00
2023-12-12T02:38:49.447Z,601.00
2023-12-12T02:39:49.359Z,600.00
2023-12-12T02:40:49.277Z,600.00
2023-12-12T02:41:49.239Z,603.00
2023-12-12T02:42:49.162Z,606.00
2023-12-12T02:43:49.116Z,602.00
2023-12-12T02:44:49.017Z,602.00
2023-12-12T02:45:48.972Z,603.00
2023-12-12T02:46:48.935Z,601.00
2023-12-12T02:47:48.990Z,602.00
2023-12-12T02:48:48.836Z,605.00
2023-12-12T02:49:48.847Z,602.00
2023-12-12T02:50:48.639Z,605.00
2023-12-12T02:51:48.591Z,603.00
2023-12-12T02:52:48.531Z,605.00
2023-12-12T02:53:48.483Z,603.00
2023-12-12T02:54:48.393Z,606.00
2023-12-12T02:55:48.337Z,604.00
2023-12-12T02:56:48.284Z,601.00
2023-12-12T02:57:48.192Z,605.00
2023-12-12T02:58:48.153Z,605.00
2023-12-12T02:59:48.046Z,601.00
2023-12-12T03:00:48.041Z,602.00
2023-12-12T03:01:47.988Z,603.00
2023-12-12T03:02:47.864Z,605.00
2023-12-12T03:03:47.829Z,601.00
2023-12-12T03:04:47.867Z,602.00
2023-12-12T03:05:47.764Z,600.00
2023-12-12T03:06:47.644Z,601.00
2023-12-12T03:07:47.584Z,604.00
2023-12-12T03:08:47.495Z,601.00
2023-12-12T03:09:47.443Z,601.00
2023-12-12T03:10:47.384Z,603.00
2023-12-12T03:11:47.396Z,605.00
2023-12-12T03:12:47.323Z,602.00
2023-12-12T03:13:47.256Z,604.00
2023-12-12T03:14:47.252Z,607.00
2023-12-12T03:15:47.233Z,605.00
2023-12-12T03:16:47.201Z,605.00
2023-12-12T03:17:47.296Z,605.00
2023-12-12T03:18:47.128Z,604.00
2023-12-12T03:19:47.052Z,604.00
2023-12-12T03:20:46.919Z,605.00
2023-12-12T03:21:46.896Z,601.00
2023-12-12T03:22:46.802Z,602.00
2023-12-12T03:23:46.758Z,601.00
2023-12-12T03:24:46.727Z,601.00
2023-12-12T03:25:46.665Z,604.00
2023-12-12T03:26:46.630Z,604.00
2023-12-12T03:27:46.577Z,602.00
2023-12-12T03:28:46.540Z,602.00
2023-12-12T03:29:46.516Z,605.00
2023-12-12T03:30:46.431Z,604.00
2023-12-12T03:31:46.420Z,601.00
2023-12-12T03:32:46.444Z,603.00
2023-12-12T03:33:46.345Z,603.00
2023-12-12T03:34:46.330Z,601.00
2023-12-12T03:35:46.221Z,602.00
2023-12-12T03:36:46.182Z,603.00
2023-12-12T03:37:46.161Z,606.00
2023-12-12T03:38:46.061Z,603.00
2023-12-12T03:39:46.012Z,604.00
2023-12-12T03:40:45.936Z,605.00
2023-12-12T03:41:45.957Z,603.00
2023-12-12T03:42:45.877Z,604.00
2023-12-12T03:43:45.894Z,604.00
2023-12-12T03:44:45.793Z,602.00
2023-12-12T03:45:45.774Z,601.00
2023-12-12T03:46:45.753Z,604.00
2023-12-12T03:47:45.659Z,601.00
2023-12-12T03:48:45.640Z,602.00
2023-12-12T03:49:45.688Z,604.00
2023-12-12T03:50:45.523Z,600.00
2023-12-12T03:51:45.458Z,603.00
2023-12-12T03:52:45.399Z,604.00
2023-12-12T03:53:45.339Z,605.00
2023-12-12T03:54:45.351Z,605.00
2023-12-12T03:55:45.247Z,601.00
2023-12-12T03:56:45.236Z,607.00
2023-12-12T03:57:45.195Z,607.00
2023-12-12T03:58:45.100Z,604.00
2023-12-12T03:59:45.139Z,605.00
2023-12-12T04:00:45.046Z,605.00
2023-12-12T04:01:45.156Z,603.00
2023-12-12T04:02:44.980Z,605.00
2023-12-12T04:03:44.887Z,607.00
2023-12-12T04:04:44.896Z,602.00
2023-12-12T04:05:44.860Z,601.00
2023-12-12T04:06:44.778Z,603.00
2023-12-12T04:07:44.769Z,603.00
2023-12-12T04:08:44.660Z,603.00
2023-12-12T04:09:44.592Z,603.00
2023-12-12T04:10:44.576Z,603.00
2023-12-12T04:11:44.504Z,605.00
2023-12-12T04:12:44.446Z,603.00
2023-12-12T04:13:44.428Z,604.00
2023-12-12T04:14:44.376Z,604.00
2023-12-12T04:15:44.290Z,605.00
2023-12-12T04:16:44.330Z,605.00
2023-12-12T04:17:44.402Z,602.00
2023-12-12T04:18:44.280Z,600.00
2023-12-12T04:19:44.203Z,604.00
2023-12-12T04:20:44.103Z,604.00
2023-12-12T04:21:44.054Z,603.00
2023-12-12T04:22:44.030Z,602.00
2023-12-12T04:23:44.298Z,604.00
2023-12-12T04:24:43.980Z,604.00
2023-12-12T04:25:44.037Z,603.00
2023-12-12T04:26:43.926Z,600.00
2023-12-12T04:27:43.816Z,604.00
2023-12-12T04:28:43.764Z,604.00
2023-12-12T04:29:43.737Z,602.00
2023-12-12T04:30:43.647Z,604.00
2023-12-12T04:31:43.665Z,603.00
2023-12-12T04:32:43.637Z,603.00
2023-12-12T04:33:43.595Z,606.00
2023-12-12T04:34:43.575Z,603.00
2023-12-12T04:35:43.464Z,604.00
2023-12-12T04:36:43.421Z,603.00
2023-12-12T04:37:43.379Z,603.00
2023-12-12T04:38:43.351Z,606.00
2023-12-12T04:39:43.286Z,603.00
2023-12-12T04:40:43.296Z,605.00
2023-12-12T04:41:43.201Z,604.00
2023-12-12T04:42:43.155Z,604.00
2023-12-12T04:43:43.131Z,602.00
2023-12-12T04:44:43.065Z,602.00
2023-12-12T04:45:43.007Z,604.00
2023-12-12T04:46:43.425Z,601.00
2023-12-12T04:47:42.964Z,601.00
2023-12-12T04:48:42.953Z,601.00
2023-12-12T04:49:42.931Z,605.00
2023-12-12T04:50:42.741Z,601.00
2023-12-12T04:51:42.735Z,602.00
2023-12-12T04:52:50.094Z,600.00
2023-12-12T04:53:50.095Z,600.00
2023-12-12T04:54:50.077Z,600.00
2023-12-12T04:55:50.085Z,600.00
2023-12-12T04:56:50.054Z,600.00
2023-12-12T04:57:50.028Z,600.00
2023-12-12T04:58:50.054Z,605.00
2023-12-12T04:59:50.030Z,603.00
2023-12-12T05:00:50.020Z,604.00
2023-12-12T05:01:50.055Z,602.00
2023-12-12T05:02:50.029Z,601.00
2023-12-12T05:03:50.023Z,604.00
2023-12-12T05:04:49.969Z,604.00
2023-12-12T05:05:50.124Z,604.00
2023-12-12T05:06:50.004Z,602.00
2023-12-12T05:07:50.010Z,600.00
2023-12-12T05:08:49.928Z,603.00
2023-12-12T05:09:49.922Z,602.00
2023-12-12T05:10:49.930Z,606.00
2023-12-12T05:11:49.879Z,604.00
2023-12-12T05:12:49.939Z,601.00
2023-12-12T05:13:49.991Z,603.00
2023-12-12T05:14:49.849Z,604.00
2023-12-12T05:15:49.902Z,604.00
2023-12-12T05:16:57.993Z,602.00
2023-12-12T05:17:50.953Z,603.00
2023-12-12T05:18:49.890Z,603.00
2023-12-12T05:19:49.893Z,603.00
2023-12-12T05:20:49.788Z,604.00
2023-12-12T05:21:49.779Z,602.00
2023-12-12T05:22:49.786Z,602.00
2023-12-12T05:23:49.765Z,602.00
2023-12-12T05:24:49.761Z,602.00
2023-12-12T05:25:49.766Z,603.00
2023-12-12T05:26:49.712Z,604.00
2023-12-12T05:27:49.725Z,603.00
2023-12-12T05:28:49.694Z,601.00
2023-12-12T05:29:49.736Z,600.00
2023-12-12T05:30:49.803Z,604.00
2023-12-12T05:31:49.838Z,603.00
2023-12-12T05:32:49.827Z,603.00
2023-12-12T05:33:49.967Z,604.00
2023-12-12T05:34:49.949Z,602.00
2023-12-12T05:35:49.875Z,606.00
2023-12-12T05:36:49.949Z,603.00
2023-12-12T05:37:50.003Z,602.00
2023-12-12T05:38:50.020Z,603.00
2023-12-12T05:39:50.033Z,600.00
2023-12-12T05:40:50.061Z,600.00
2023-12-12T05:41:50.092Z,605.00
2023-12-12T05:42:50.159Z,602.00
2023-12-12T05:43:50.129Z,603.00
2023-12-12T05:44:50.294Z,603.00
2023-12-12T05:45:50.243Z,602.00
2023-12-12T05:46:50.258Z,600.00
2023-12-12T05:47:50.332Z,601.00
2023-12-12T05:48:50.340Z,602.00
2023-12-12T05:49:50.404Z,602.00
2023-12-12T05:50:50.316Z,604.00
2023-12-12T05:51:50.349Z,605.00
2023-12-12T05:52:50.438Z,603.00
2023-12-12T05:53:50.437Z,607.00
2023-12-12T05:54:50.500Z,601.00
2023-12-12T05:55:50.430Z,602.00
2023-12-12T05:56:50.496Z,603.00
2023-12-12T05:57:50.489Z,605.00
2023-12-12T05:58:50.503Z,603.00
2023-12-12T05:59:50.529Z,604.00
2023-12-12T06:00:50.584Z,605.00
2023-12-12T06:01:50.615Z,603.00
2023-12-12T06:02:50.569Z,604.00
2023-12-12T06:03:50.706Z,602.00
2023-12-12T06:04:50.713Z,604.00
2023-12-12T06:05:50.646Z,606.00
2023-12-12T06:06:50.771Z,603.00
2023-12-12T06:07:50.700Z,601.00
2023-12-12T06:08:50.674Z,600.00
2023-12-12T06:09:50.720Z,604.00
2023-12-12T06:10:50.786Z,603.00
2023-12-12T06:11:50.757Z,605.00
2023-12-12T06:12:50.715Z,602.00
2023-12-12T06:13:50.761Z,601.00
2023-12-12T06:14:50.741Z,601.00
2023-12-12T06:15:50.749Z,600.00
2023-12-12T06:16:50.777Z,605.00
2023-12-12T06:17:50.832Z,602.00
2023-12-12T06:18:50.829Z,602.00
2023-12-12T06:19:50.946Z,603.00
2023-12-12T06:20:50.783Z,600.00
2023-12-12T06:21:50.821Z,603.00
2023-12-12T06:22:50.852Z,601.00
2023-12-12T06:23:50.833Z,602.00
2023-12-12T06:24:50.855Z,604.00
2023-12-12T06:25:50.904Z,604.00
2023-12-12T06:26:50.867Z,604.00
2023-12-12T06:27:50.878Z,605.00
2023-12-12T06:28:50.880Z,603.00
2023-12-12T06:29:50.900Z,602.00
2023-12-12T06:30:50.926Z,604.00
2023-12-12T06:31:51.003Z,604.00
2023-12-12T06:32:51.114Z,604.00
2023-12-12T06:33:51.022Z,602.00
2023-12-12T06:34:50.893Z,605.00
2023-12-12T06:35:54.403Z,606.00
2023-12-12T06:36:50.854Z,606.00
2023-12-12T06:37:50.941Z,603.00
2023-12-12T06:38:50.861Z,606.00
2023-12-12T06:39:50.859Z,602.00
2023-12-12T06:40:50.868Z,603.00
2023-12-12T06:41:51.836Z,602.00
2023-12-12T06:42:50.838Z,602.00
2023-12-12T06:43:50.793Z,601.00
2023-12-12T06:44:50.777Z,604.00
2023-12-12T06:45:50.803Z,603.00
2023-12-12T06:46:50.849Z,603.00
2023-12-12T06:47:50.875Z,600.00
2023-12-12T06:48:50.791Z,601.00
2023-12-12T06:49:50.812Z,603.00
2023-12-12T06:50:50.776Z,603.00
2023-12-12T06:51:50.825Z,602.00
2023-12-12T06:52:50.735Z,603.00
2023-12-12T06:53:53.311Z,601.00
2023-12-12T06:54:50.918Z,606.00
2023-12-12T06:55:50.887Z,603.00
2023-12-12T06:56:50.901Z,612.00
2023-12-12T06:57:50.956Z,603.00
2023-12-12T06:58:50.966Z,604.00
2023-12-12T06:59:50.977Z,605.00
2023-12-12T07:00:51.030Z,603.00
2023-12-12T07:01:51.011Z,602.00
2023-12-12T07:02:51.025Z,604.00
2023-12-12T07:03:51.011Z,606.00
2023-12-12T07:04:51.070Z,605.00
2023-12-12T07:05:51.099Z,607.00
2023-12-12T07:06:51.109Z,608.00
2023-12-12T07:07:51.041Z,609.00
2023-12-12T07:08:52.106Z,610.00
2023-12-12T07:09:59.272Z,613.00
2023-12-12T07:10:52.027Z,613.00
2023-12-12T07:11:51.017Z,613.00
2023-12-12T07:12:51.260Z,615.00
2023-12-12T07:13:51.020Z,617.00
2023-12-12T07:14:51.151Z,621.00
2023-12-12T07:15:50.978Z,624.00
2023-12-12T07:16:50.982Z,626.00
2023-12-12T07:17:50.978Z,628.00
2023-12-12T07:18:51.013Z,632.00
2023-12-12T07:19:51.084Z,633.00
2023-12-12T07:20:50.917Z,635.00
2023-12-12T07:21:50.911Z,639.00
2023-12-12T07:22:50.907Z,640.00
2023-12-12T07:23:50.904Z,644.00
2023-12-12T07:24:50.911Z,646.00
2023-12-12T07:25:50.936Z,645.00
2023-12-12T07:26:50.999Z,648.00
2023-12-12T07:27:51.088Z,652.00
2023-12-12T07:28:51.144Z,655.00
2023-12-12T07:29:51.077Z,659.00
2023-12-12T07:30:51.080Z,663.00
2023-12-12T07:31:51.184Z,668.00
2023-12-12T07:32:51.301Z,668.00
2023-12-12T07:33:51.322Z,677.00
2023-12-12T07:34:51.331Z,686.00
2023-12-12T07:35:51.405Z,694.00
2023-12-12T07:36:51.443Z,705.00
2023-12-12T07:37:51.651Z,708.00
2023-12-12T07:38:51.547Z,714.00
2023-12-12T07:39:51.603Z,720.00
2023-12-12T07:40:51.762Z,734.00
2023-12-12T07:41:52.041Z,738.00
2023-12-12T07:42:51.777Z,741.00
2023-12-12T07:43:51.836Z,748.00
2023-12-12T07:44:51.962Z,753.00
2023-12-12T07:45:52.104Z,759.00
2023-12-12T07:46:52.020Z,766.00
2023-12-12T07:47:52.533Z,773.00
2023-12-12T07:48:52.249Z,774.00
2023-12-12T07:49:52.243Z,777.00
2023-12-12T07:50:52.270Z,785.00
2023-12-12T07:51:52.340Z,793.00
2023-12-12T07:52:52.515Z,797.00
2023-12-12T07:53:52.391Z,795.00
2023-12-12T07:54:52.597Z,800.00
2023-12-12T07:55:52.533Z,805.00
2023-12-12T07:56:52.594Z,809.00
2023-12-12T07:57:52.683Z,810.00
2023-12-12T07:58:52.756Z,816.00
2023-12-12T07:59:54.298Z,822.00
2023-12-12T08:00:52.850Z,827.00
2023-12-12T08:01:53.023Z,826.00
2023-12-12T08:02:52.922Z,835.00
2023-12-12T08:03:53.030Z,840.00
2023-12-12T08:04:53.071Z,846.00
2023-12-12T08:05:53.142Z,847.00
2023-12-12T08:06:53.170Z,854.00
2023-12-12T08:07:53.234Z,852.00
2023-12-12T08:08:53.243Z,856.00
2023-12-12T08:09:53.355Z,858.00
2023-12-12T08:10:53.387Z,860.00
2023-12-12T08:11:53.453Z,862.00
2023-12-12T08:12:53.474Z,868.00
2023-12-12T08:13:53.762Z,867.00
2023-12-12T08:14:53.584Z,872.00
2023-12-12T08:15:53.640Z,872.00
2023-12-12T08:16:53.714Z,875.00
2023-12-12T08:17:53.955Z,876.00
2023-12-12T08:18:53.847Z,873.00
2023-12-12T08:19:53.973Z,880.00
2023-12-12T08:21:19.070Z,876.00
2023-12-12T08:21:53.953Z,878.00
2023-12-12T08:22:53.911Z,883.00
2023-12-12T08:23:54.113Z,889.00
2023-12-12T08:24:54.128Z,893.00
2023-12-12T08:25:53.841Z,911.00
2023-12-12T08:26:53.837Z,916.00
2023-12-12T08:27:53.844Z,916.00
2023-12-12T08:28:53.854Z,910.00
2023-12-12T08:29:53.811Z,912.00
2023-12-12T08:30:53.883Z,922.00
2023-12-12T08:31:53.856Z,911.00
2023-12-12T08:32:53.921Z,922.00
2023-12-12T08:33:53.780Z,928.00
2023-12-12T08:34:53.811Z,942.00
2023-12-12T08:35:53.748Z,962.00
2023-12-12T08:36:53.753Z,965.00
2023-12-12T08:37:53.698Z,961.00
2023-12-12T08:38:53.759Z,962.00
2023-12-12T08:39:53.679Z,966.00
2023-12-12T08:40:57.528Z,962.00
2023-12-12T08:41:53.691Z,974.00
2023-12-12T08:42:53.611Z,968.00
2023-12-12T08:43:53.560Z,966.00
2023-12-12T08:44:53.573Z,978.00
2023-12-12T08:45:53.534Z,984.00
2023-12-12T08:46:53.520Z,975.00
2023-12-12T08:47:53.546Z,978.00
2023-12-12T08:48:53.510Z,970.00
2023-12-12T08:49:53.581Z,979.00
2023-12-12T08:50:53.470Z,977.00
2023-12-12T08:51:53.472Z,979.00
2023-12-12T08:52:53.436Z,978.00
2023-12-12T08:53:53.436Z,979.00
2023-12-12T08:54:53.395Z,975.00
2023-12-12T08:55:53.400Z,975.00
2023-12-12T08:56:53.400Z,975.00
2023-12-12T08:57:53.412Z,973.00
2023-12-12T08:58:53.475Z,967.00
2023-12-12T08:59:53.436Z,968.00
2023-12-12T09:00:53.428Z,967.00
2023-12-12T09:01:53.413Z,967.00
2023-12-12T09:02:53.348Z,960.00
2023-12-12T09:03:53.304Z,961.00
2023-12-12T09:04:53.366Z,960.00
2023-12-12T09:05:53.426Z,956.00
2023-12-12T09:06:53.465Z,957.00
2023-12-12T09:07:53.537Z,952.00
2023-12-12T09:08:54.332Z,954.00
2023-12-12T09:09:53.582Z,949.00
2023-12-12T09:10:53.626Z,946.00
2023-12-12T09:11:53.641Z,939.00
2023-12-12T09:12:53.672Z,938.00
2023-12-12T09:13:53.699Z,937.00
2023-12-12T09:14:53.752Z,934.00
2023-12-12T09:15:53.751Z,932.00
2023-12-12T09:16:53.790Z,929.00
2023-12-12T09:18:05.912Z,925.00
2023-12-12T09:18:54.990Z,926.00
2023-12-12T09:19:54.085Z,926.00
2023-12-12T09:20:54.013Z,926.00
2023-12-12T09:21:53.920Z,919.00
2023-12-12T09:22:53.856Z,917.00
2023-12-12T09:23:53.783Z,919.00
2023-12-12T09:24:53.745Z,914.00
2023-12-12T09:25:53.761Z,912.00
2023-12-12T09:26:53.751Z,903.00
2023-12-12T09:27:53.687Z,906.00
2023-12-12T09:28:53.691Z,896.00
2023-12-12T09:29:55.916Z,898.00
2023-12-12T09:30:53.800Z,899.00
2023-12-12T09:31:53.670Z,900.00
2023-12-12T09:32:53.756Z,909.00
2023-12-12T09:33:53.731Z,921.00
2023-12-12T09:34:53.680Z,921.00
2023-12-12T09:35:53.671Z,928.00
2023-12-12T09:36:53.702Z,933.00
2023-12-12T09:37:53.724Z,945.00
2023-12-12T09:38:53.695Z,950.00
2023-12-12T09:39:53.692Z,952.00
2023-12-12T09:40:53.694Z,961.00
2023-12-12T09:41:53.666Z,967.00
2023-12-12T09:42:53.690Z,963.00
2023-12-12T09:43:53.686Z,964.00
2023-12-12T09:44:53.702Z,970.00
2023-12-12T09:45:53.704Z,965.00
2023-12-12T09:46:53.714Z,968.00
2023-12-12T09:47:53.736Z,968.00
2023-12-12T09:48:54.169Z,966.00
2023-12-12T09:49:53.721Z,968.00
2023-12-12T09:50:53.671Z,967.00
2023-12-12T09:51:53.730Z,964.00
2023-12-12T09:52:53.715Z,973.00
2023-12-12T09:53:53.699Z,969.00
2023-12-12T09:54:53.694Z,966.00
2023-12-12T09:55:53.731Z,964.00
2023-12-12T09:56:53.720Z,967.00
2023-12-12T09:57:53.739Z,967.00
2023-12-12T09:58:53.735Z,963.00
2023-12-12T09:59:53.723Z,957.00
2023-12-12T10:00:53.770Z,958.00
2023-12-12T10:01:53.784Z,956.00
2023-12-12T10:02:53.725Z,961.00
2023-12-12T10:03:53.717Z,959.00
2023-12-12T10:04:53.718Z,956.00
2023-12-12T10:05:53.801Z,957.00
2023-12-12T10:06:53.741Z,954.00
2023-12-12T10:08:00.325Z,956.00
2023-12-12T10:08:54.749Z,956.00
2023-12-12T10:09:53.755Z,957.00
2023-12-12T10:10:53.837Z,956.00
2023-12-12T10:11:53.740Z,953.00
2023-12-12T10:12:53.732Z,951.00
2023-12-12T10:13:53.743Z,948.00
2023-12-12T10:14:53.735Z,947.00
2023-12-12T10:15:53.720Z,949.00
2023-12-12T10:16:53.742Z,945.00
2023-12-12T10:17:53.793Z,949.00
2023-12-12T10:18:53.765Z,943.00
2023-12-12T10:19:53.883Z,944.00
2023-12-12T10:20:53.820Z,942.00
2023-12-12T10:21:53.706Z,943.00
2023-12-12T10:22:53.845Z,946.00
2023-12-12T10:23:53.809Z,942.00
2023-12-12T10:24:53.670Z,938.00
2023-12-12T10:25:53.701Z,939.00
2023-12-12T10:26:53.756Z,937.00
2023-12-12T10:27:53.676Z,935.00
2023-12-12T10:28:53.655Z,934.00
2023-12-12T10:29:53.704Z,935.00
2023-12-12T10:30:53.855Z,931.00
2023-12-12T10:31:53.672Z,931.00
2023-12-12T10:32:53.660Z,926.00
2023-12-12T10:33:53.683Z,932.00
2023-12-12T10:34:53.786Z,924.00
2023-12-12T10:35:53.678Z,923.00
2023-12-12T10:36:53.648Z,923.00
2023-12-12T10:37:53.744Z,923.00
2023-12-12T10:38:53.691Z,918.00
2023-12-12T10:39:53.628Z,917.00
2023-12-12T10:40:53.690Z,916.00
2023-12-12T10:42:15.646Z,914.00
2023-12-12T10:42:53.627Z,916.00
2023-12-12T10:43:54.544Z,920.00
2023-12-12T10:44:53.591Z,922.00
2023-12-12T10:45:53.561Z,926.00
2023-12-12T10:46:53.546Z,928.00
2023-12-12T10:47:53.580Z,923.00
2023-12-12T10:48:53.902Z,920.00
2023-12-12T10:49:53.576Z,915.00
2023-12-12T10:50:53.551Z,913.00
2023-12-12T10:51:53.520Z,905.00
2023-12-12T10:52:53.991Z,904.00
2023-12-12T10:53:53.482Z,905.00
2023-12-12T10:54:53.502Z,897.00
2023-12-12T10:55:53.478Z,912.00
2023-12-12T10:56:53.471Z,905.00
2023-12-12T10:57:53.484Z,907.00
2023-12-12T10:58:53.488Z,908.00
2023-12-12T11:00:00.055Z,915.00
2023-12-12T11:00:54.504Z,916.00
2023-12-12T11:01:53.482Z,917.00
2023-12-12T11:03:02.465Z,924.00
2023-12-12T11:03:53.440Z,917.00
2023-12-12T11:04:53.392Z,920.00
2023-12-12T11:05:53.402Z,926.00
2023-12-12T11:06:53.353Z,943.00
2023-12-12T11:07:53.355Z,951.00
2023-12-12T11:08:53.317Z,960.00
2023-12-12T11:09:53.341Z,955.00
2023-12-12T11:10:53.287Z,954.00
2023-12-12T11:11:53.270Z,960.00
2023-12-12T11:12:53.270Z,966.00
2023-12-12T11:13:53.240Z,969.00
2023-12-12T11:14:53.213Z,971.00
2023-12-12T11:15:53.217Z,976.00
2023-12-12T11:16:53.241Z,977.00
2023-12-12T11:17:53.237Z,981.00
2023-12-12T11:18:53.200Z,968.00
2023-12-12T11:19:53.245Z,972.00
2023-12-12T11:20:53.268Z,991.00
2023-12-12T11:21:53.149Z,995.00
2023-12-12T11:22:53.401Z,989.00
2023-12-12T11:23:53.099Z,999.00
2023-12-12T11:24:53.053Z,1000.00
2023-12-12T11:25:53.137Z,1001.00
2023-12-12T11:26:53.039Z,1009.00
2023-12-12T11:27:53.074Z,1001.00
2023-12-12T11:28:53.059Z,1009.00
2023-12-12T11:29:53.033Z,1007.00
2023-12-12T11:30:53.000Z,1012.00
2023-12-12T11:31:53.108Z,1023.00
2023-12-12T11:32:53.602Z,1015.00
2023-12-12T11:33:53.119Z,1019.00
2023-12-12T11:34:52.965Z,1014.00
2023-12-12T11:35:53.091Z,1028.00
2023-12-12T11:36:52.958Z,1022.00
2023-12-12T11:37:52.889Z,1028.00
2023-12-12T11:38:52.872Z,1019.00
2023-12-12T11:39:52.868Z,1028.00
2023-12-12T11:40:52.843Z,1035.00
2023-12-12T11:41:52.867Z,1034.00
2023-12-12T11:42:52.826Z,1031.00
2023-12-12T11:43:52.792Z,1041.00
2023-12-12T11:44:52.788Z,1051.00
2023-12-12T11:45:52.787Z,1046.00
2023-12-12T11:46:52.735Z,1056.00
2023-12-12T11:47:52.802Z,1054.00
2023-12-12T11:48:52.772Z,1061.00
2023-12-12T11:49:52.706Z,1074.00
2023-12-12T11:50:52.683Z,1072.00
2023-12-12T11:51:52.662Z,1069.00
2023-12-12T11:52:52.726Z,1071.00
2023-12-12T11:53:52.651Z,1078.00
2023-12-12T11:54:52.620Z,1080.00
2023-12-12T11:55:52.581Z,1087.00
2023-12-12T11:56:52.598Z,1077.00
2023-12-12T11:57:52.658Z,1096.00
2023-12-12T11:58:52.695Z,1091.00
2023-12-12T11:59:52.700Z,1091.00
2023-12-12T12:00:52.778Z,1091.00
2023-12-12T12:01:52.769Z,1106.00
2023-12-12T12:02:52.816Z,1114.00
2023-12-12T12:03:52.838Z,1116.00
2023-12-12T12:04:52.806Z,1109.00
2023-12-12T12:05:52.910Z,1119.00
2023-12-12T12:06:52.897Z,1123.00
2023-12-12T12:07:52.930Z,1124.00
2023-12-12T12:08:52.980Z,1126.00
2023-12-12T12:09:52.996Z,1135.00
2023-12-12T12:10:53.051Z,1131.00
2023-12-12T12:11:53.087Z,1140.00
2023-12-12T12:12:53.121Z,1144.00
2023-12-12T12:13:53.218Z,1152.00
2023-12-12T12:14:53.172Z,1158.00
2023-12-12T12:15:53.217Z,1161.00
2023-12-12T12:16:53.305Z,1169.00
2023-12-12T12:17:53.509Z,1176.00
2023-12-12T12:18:53.352Z,1179.00
2023-12-12T12:19:53.381Z,1176.00
2023-12-12T12:20:53.407Z,1189.00
2023-12-12T12:21:53.432Z,1194.00
2023-12-12T12:22:53.597Z,1193.00
2023-12-12T12:23:53.497Z,1195.00
2023-12-12T12:24:56.615Z,1204.00
2023-12-12T12:25:53.572Z,1204.00
2023-12-12T12:26:53.527Z,1207.00